sensor_id;sensor_type;location;lat;lon;timestamp;temperature;humidity
16263;DHT22;8239;48.594;8.598;2023-02-24T00:00:00;5.70;99.90
16263;DHT22;8239;48.594;8.598;2023-02-24T00:02:54;5.70;99.90
16263;DHT22;8239;48.594;8.598;2023-02-24T00:05:21;5.70;99.90
16263;DHT22;8239;48.594;8.598;2023-02-24T00:07:49;5.70;99.90
16263;DHT22;8239;48.594;8.598;2023-02-24T00:10:16;5.70;99.90
16263;DHT22;8239;48.594;8.598;2023-02-24T00:12:44;5.70;99.90
16263;DHT22;8239;48.594;8.598;2023-02-24T00:15:13;5.70;99.90
16263;DHT22;8239;48.594;8.598;2023-02-24T00:17:41;5.70;99.90
16263;DHT22;8239;48.594;8.598;2023-02-24T00:20:10;5.70;99.90
16263;DHT22;8239;48.594;8.598;2023-02-24T00:22:38;5.70;99.90
16263;DHT22;8239;48.594;8.598;2023-02-24T00:25:06;5.70;99.90
16263;DHT22;8239;48.594;8.598;2023-02-24T00:27:33;5.60;99.90
16263;DHT22;8239;48.594;8.598;2023-02-24T00:30:00;5.60;99.90
16263;DHT22;8239;48.594;8.598;2023-02-24T00:32:31;5.60;99.90
16263;DHT22;8239;48.594;8.598;2023-02-24T00:35:00;5.60;99.90
16263;DHT22;8239;48.594;8.598;2023-02-24T00:37:27;5.60;99.90
16263;DHT22;8239;48.594;8.598;2023-02-24T00:39:54;5.60;99.90
16263;DHT22;8239;48.594;8.598;2023-02-24T00:42:23;5.60;99.90
16263;DHT22;8239;48.594;8.598;2023-02-24T00:44:50;5.50;99.90
16263;DHT22;8239;48.594;8.598;2023-02-24T00:47:19;5.50;99.90
16263;DHT22;8239;48.594;8.598;2023-02-24T00:49:48;5.50;99.90
16263;DHT22;8239;48.594;8.598;2023-02-24T00:52:16;5.50;99.90
16263;DHT22;8239;48.594;8.598;2023-02-24T00:54:44;5.50;99.90
16263;DHT22;8239;48.594;8.598;2023-02-24T00:57:12;5.40;99.90
16263;DHT22;8239;48.594;8.598;2023-02-24T00:59:39;5.40;99.90
16263;DHT22;8239;48.594;8.598;2023-02-24T01:02:07;5.30;99.90
16263;DHT22;8239;48.594;8.598;2023-02-24T01:04:36;5.30;99.90
16263;DHT22;8239;48.594;8.598;2023-02-24T01:07:04;5.30;99.90
16263;DHT22;8239;48.594;8.598;2023-02-24T01:09:36;5.30;99.90
16263;DHT22;8239;48.594;8.598;2023-02-24T01:12:06;5.40;99.90
16263;DHT22;8239;48.594;8.598;2023-02-24T01:14:52;5.40;99.90
16263;DHT22;8239;48.594;8.598;2023-02-24T01:17:20;5.40;99.90
16263;DHT22;8239;48.594;8.598;2023-02-24T01:19:48;5.40;99.90
16263;DHT22;8239;48.594;8.598;2023-02-24T01:22:19;5.40;99.90
16263;DHT22;8239;48.594;8.598;2023-02-24T01:24:47;5.40;99.90
16263;DHT22;8239;48.594;8.598;2023-02-24T01:27:16;5.40;99.90
16263;DHT22;8239;48.594;8.598;2023-02-24T01:29:43;5.40;99.90
16263;DHT22;8239;48.594;8.598;2023-02-24T01:32:13;5.50;99.90
16263;DHT22;8239;48.594;8.598;2023-02-24T01:34:41;5.50;99.90
16263;DHT22;8239;48.594;8.598;2023-02-24T01:37:08;5.50;99.90
16263;DHT22;8239;48.594;8.598;2023-02-24T01:39:36;5.60;99.90
16263;DHT22;8239;48.594;8.598;2023-02-24T01:42:04;5.60;99.90
16263;DHT22;8239;48.594;8.598;2023-02-24T01:45:13;5.60;99.90
16263;DHT22;8239;48.594;8.598;2023-02-24T01:47:41;5.60;99.90
16263;DHT22;8239;48.594;8.598;2023-02-24T01:50:12;5.70;99.90
16263;DHT22;8239;48.594;8.598;2023-02-24T01:52:43;5.70;99.90
16263;DHT22;8239;48.594;8.598;2023-02-24T01:55:15;5.60;99.90
16263;DHT22;8239;48.594;8.598;2023-02-24T01:57:45;5.60;99.90
16263;DHT22;8239;48.594;8.598;2023-02-24T02:00:14;5.60;99.90
16263;DHT22;8239;48.594;8.598;2023-02-24T02:03:10;5.60;99.90
16263;DHT22;8239;48.594;8.598;2023-02-24T02:05:39;5.60;99.90
16263;DHT22;8239;48.594;8.598;2023-02-24T02:08:10;5.60;99.90
16263;DHT22;8239;48.594;8.598;2023-02-24T02:10:41;5.70;99.90
16263;DHT22;8239;48.594;8.598;2023-02-24T02:13:10;5.60;99.90
16263;DHT22;8239;48.594;8.598;2023-02-24T02:15:46;5.60;99.90
16263;DHT22;8239;48.594;8.598;2023-02-24T02:18:21;5.70;99.90
16263;DHT22;8239;48.594;8.598;2023-02-24T02:24:10;5.70;99.90
16263;DHT22;8239;48.594;8.598;2023-02-24T02:26:54;5.60;99.90
16263;DHT22;8239;48.594;8.598;2023-02-24T02:32:46;5.60;99.90
16263;DHT22;8239;48.594;8.598;2023-02-24T02:35:21;5.60;99.90
16263;DHT22;8239;48.594;8.598;2023-02-24T02:37:54;5.60;99.90
16263;DHT22;8239;48.594;8.598;2023-02-24T02:40:27;5.70;99.90
16263;DHT22;8239;48.594;8.598;2023-02-24T02:43:00;5.70;99.90
16263;DHT22;8239;48.594;8.598;2023-02-24T02:45:34;5.70;99.90
16263;DHT22;8239;48.594;8.598;2023-02-24T02:48:07;5.70;99.90
16263;DHT22;8239;48.594;8.598;2023-02-24T02:50:40;5.70;99.90
16263;DHT22;8239;48.594;8.598;2023-02-24T02:53:15;5.70;99.90
16263;DHT22;8239;48.594;8.598;2023-02-24T02:55:46;5.80;99.90
16263;DHT22;8239;48.594;8.598;2023-02-24T02:58:17;5.80;99.90
16263;DHT22;8239;48.594;8.598;2023-02-24T03:00:48;5.80;99.90
16263;DHT22;8239;48.594;8.598;2023-02-24T03:03:23;5.80;99.90
16263;DHT22;8239;48.594;8.598;2023-02-24T03:05:58;5.90;99.90
16263;DHT22;8239;48.594;8.598;2023-02-24T03:08:28;5.90;99.90
16263;DHT22;8239;48.594;8.598;2023-02-24T03:11:00;5.90;99.90
16263;DHT22;8239;48.594;8.598;2023-02-24T03:13:33;5.90;99.90
16263;DHT22;8239;48.594;8.598;2023-02-24T03:18:31;5.80;99.90
16263;DHT22;8239;48.594;8.598;2023-02-24T03:21:04;5.80;99.90
16263;DHT22;8239;48.594;8.598;2023-02-24T03:23:35;5.80;99.90
16263;DHT22;8239;48.594;8.598;2023-02-24T03:26:09;5.70;99.90
16263;DHT22;8239;48.594;8.598;2023-02-24T03:28:47;5.70;99.90
16263;DHT22;8239;48.594;8.598;2023-02-24T03:31:19;5.70;99.90
16263;DHT22;8239;48.594;8.598;2023-02-24T03:33:56;5.70;99.90
16263;DHT22;8239;48.594;8.598;2023-02-24T03:36:29;5.70;99.90
16263;DHT22;8239;48.594;8.598;2023-02-24T03:38:57;5.70;99.90
16263;DHT22;8239;48.594;8.598;2023-02-24T03:41:28;5.60;99.90
16263;DHT22;8239;48.594;8.598;2023-02-24T03:43:57;5.50;99.90
16263;DHT22;8239;48.594;8.598;2023-02-24T03:46:25;5.50;99.90
16263;DHT22;8239;48.594;8.598;2023-02-24T03:49:08;5.40;99.90
16263;DHT22;8239;48.594;8.598;2023-02-24T03:51:43;5.40;99.90
16263;DHT22;8239;48.594;8.598;2023-02-24T03:54:23;5.40;99.90
16263;DHT22;8239;48.594;8.598;2023-02-24T03:57:06;5.30;99.90
16263;DHT22;8239;48.594;8.598;2023-02-24T03:59:44;5.30;99.90
16263;DHT22;8239;48.594;8.598;2023-02-24T04:02:16;5.30;99.90
16263;DHT22;8239;48.594;8.598;2023-02-24T04:04:49;5.30;99.90
16263;DHT22;8239;48.594;8.598;2023-02-24T04:07:26;5.30;99.90
16263;DHT22;8239;48.594;8.598;2023-02-24T04:10:02;5.40;99.90
16263;DHT22;8239;48.594;8.598;2023-02-24T04:12:39;5.40;99.90
16263;DHT22;8239;48.594;8.598;2023-02-24T04:15:17;5.40;99.90
16263;DHT22;8239;48.594;8.598;2023-02-24T04:17:49;5.40;99.90
16263;DHT22;8239;48.594;8.598;2023-02-24T04:20:19;5.40;99.90
16263;DHT22;8239;48.594;8.598;2023-02-24T04:22:50;5.40;99.90
16263;DHT22;8239;48.594;8.598;2023-02-24T04:25:21;5.50;99.90
16263;DHT22;8239;48.594;8.598;2023-02-24T04:27:50;5.50;99.90
16263;DHT22;8239;48.594;8.598;2023-02-24T04:30:18;5.50;99.90
16263;DHT22;8239;48.594;8.598;2023-02-24T04:32:46;5.50;99.90
16263;DHT22;8239;48.594;8.598;2023-02-24T04:35:17;5.50;99.90
16263;DHT22;8239;48.594;8.598;2023-02-24T04:37:45;5.60;99.90
16263;DHT22;8239;48.594;8.598;2023-02-24T04:40:15;5.50;99.90
16263;DHT22;8239;48.594;8.598;2023-02-24T04:42:43;5.50;99.90
16263;DHT22;8239;48.594;8.598;2023-02-24T04:45:15;5.50;99.90
16263;DHT22;8239;48.594;8.598;2023-02-24T04:47:43;5.50;99.90
16263;DHT22;8239;48.594;8.598;2023-02-24T04:50:16;5.50;99.90
16263;DHT22;8239;48.594;8.598;2023-02-24T04:52:49;5.50;99.90
16263;DHT22;8239;48.594;8.598;2023-02-24T04:55:18;5.50;99.90
16263;DHT22;8239;48.594;8.598;2023-02-24T04:57:47;5.50;99.90
16263;DHT22;8239;48.594;8.598;2023-02-24T05:00:15;5.50;99.90
16263;DHT22;8239;48.594;8.598;2023-02-24T05:02:47;5.60;99.90
16263;DHT22;8239;48.594;8.598;2023-02-24T05:05:15;5.50;99.90
16263;DHT22;8239;48.594;8.598;2023-02-24T05:07:42;5.50;99.90
16263;DHT22;8239;48.594;8.598;2023-02-24T05:10:13;5.50;99.90
16263;DHT22;8239;48.594;8.598;2023-02-24T05:12:42;5.50;99.90
16263;DHT22;8239;48.594;8.598;2023-02-24T05:15:10;5.50;99.90
16263;DHT22;8239;48.594;8.598;2023-02-24T05:17:38;5.40;99.90
16263;DHT22;8239;48.594;8.598;2023-02-24T05:20:07;5.40;99.90
16263;DHT22;8239;48.594;8.598;2023-02-24T05:22:52;5.40;99.90
16263;DHT22;8239;48.594;8.598;2023-02-24T05:25:20;5.40;99.90
16263;DHT22;8239;48.594;8.598;2023-02-24T05:27:51;5.40;99.90
16263;DHT22;8239;48.594;8.598;2023-02-24T05:30:18;5.40;99.90
16263;DHT22;8239;48.594;8.598;2023-02-24T05:32:45;5.40;99.90
16263;DHT22;8239;48.594;8.598;2023-02-24T05:35:15;5.50;99.90
16263;DHT22;8239;48.594;8.598;2023-02-24T05:37:42;5.50;99.90
16263;DHT22;8239;48.594;8.598;2023-02-24T05:40:11;5.50;99.90
16263;DHT22;8239;48.594;8.598;2023-02-24T05:42:39;5.60;99.90
16263;DHT22;8239;48.594;8.598;2023-02-24T05:45:11;5.60;99.90
16263;DHT22;8239;48.594;8.598;2023-02-24T05:47:38;5.60;99.90
16263;DHT22;8239;48.594;8.598;2023-02-24T05:50:06;5.60;99.90
16263;DHT22;8239;48.594;8.598;2023-02-24T05:52:36;5.60;99.90
16263;DHT22;8239;48.594;8.598;2023-02-24T05:55:04;5.60;99.90
16263;DHT22;8239;48.594;8.598;2023-02-24T05:57:38;5.60;99.90
16263;DHT22;8239;48.594;8.598;2023-02-24T06:00:07;5.50;99.90
16263;DHT22;8239;48.594;8.598;2023-02-24T06:02:42;5.40;99.90
16263;DHT22;8239;48.594;8.598;2023-02-24T06:05:18;5.30;99.90
16263;DHT22;8239;48.594;8.598;2023-02-24T06:07:57;5.30;99.90
16263;DHT22;8239;48.594;8.598;2023-02-24T06:10:30;5.20;99.90
16263;DHT22;8239;48.594;8.598;2023-02-24T06:13:01;5.20;99.90
16263;DHT22;8239;48.594;8.598;2023-02-24T06:15:29;5.20;99.90
16263;DHT22;8239;48.594;8.598;2023-02-24T06:17:59;5.20;99.90
16263;DHT22;8239;48.594;8.598;2023-02-24T06:20:27;5.10;99.90
16263;DHT22;8239;48.594;8.598;2023-02-24T06:22:55;5.00;99.90
16263;DHT22;8239;48.594;8.598;2023-02-24T06:25:23;5.00;99.90
16263;DHT22;8239;48.594;8.598;2023-02-24T06:27:53;4.90;99.90
16263;DHT22;8239;48.594;8.598;2023-02-24T06:30:21;4.90;99.90
16263;DHT22;8239;48.594;8.598;2023-02-24T06:32:49;4.80;99.90
16263;DHT22;8239;48.594;8.598;2023-02-24T06:35:18;4.80;99.90
16263;DHT22;8239;48.594;8.598;2023-02-24T06:37:46;4.70;99.90
16263;DHT22;8239;48.594;8.598;2023-02-24T06:40:13;4.60;99.90
16263;DHT22;8239;48.594;8.598;2023-02-24T06:42:45;4.60;99.90
16263;DHT22;8239;48.594;8.598;2023-02-24T06:45:13;4.50;99.90
16263;DHT22;8239;48.594;8.598;2023-02-24T06:47:41;4.50;99.90
16263;DHT22;8239;48.594;8.598;2023-02-24T06:50:10;4.50;99.90
16263;DHT22;8239;48.594;8.598;2023-02-24T06:52:38;4.50;99.90
16263;DHT22;8239;48.594;8.598;2023-02-24T06:55:06;4.60;99.90
16263;DHT22;8239;48.594;8.598;2023-02-24T06:57:50;4.60;99.90
16263;DHT22;8239;48.594;8.598;2023-02-24T07:00:22;4.70;99.90
16263;DHT22;8239;48.594;8.598;2023-02-24T07:02:52;4.70;99.90
16263;DHT22;8239;48.594;8.598;2023-02-24T07:05:21;4.80;99.90
16263;DHT22;8239;48.594;8.598;2023-02-24T07:07:50;4.80;99.90
16263;DHT22;8239;48.594;8.598;2023-02-24T07:10:17;4.90;99.90
16263;DHT22;8239;48.594;8.598;2023-02-24T07:12:44;5.00;99.90
16263;DHT22;8239;48.594;8.598;2023-02-24T07:15:11;5.10;99.90
16263;DHT22;8239;48.594;8.598;2023-02-24T07:17:38;5.20;99.90
16263;DHT22;8239;48.594;8.598;2023-02-24T07:20:08;5.40;99.90
16263;DHT22;8239;48.594;8.598;2023-02-24T07:22:51;5.50;99.90
16263;DHT22;8239;48.594;8.598;2023-02-24T07:25:18;5.70;99.90
16263;DHT22;8239;48.594;8.598;2023-02-24T07:27:58;5.80;99.90
16263;DHT22;8239;48.594;8.598;2023-02-24T07:30:27;6.00;99.90
16263;DHT22;8239;48.594;8.598;2023-02-24T07:32:54;6.10;99.90
16263;DHT22;8239;48.594;8.598;2023-02-24T07:35:21;6.20;99.90
16263;DHT22;8239;48.594;8.598;2023-02-24T07:37:51;6.30;99.90
16263;DHT22;8239;48.594;8.598;2023-02-24T07:40:20;6.40;99.90
16263;DHT22;8239;48.594;8.598;2023-02-24T07:42:47;6.60;99.90
16263;DHT22;8239;48.594;8.598;2023-02-24T07:45:14;6.80;99.90
16263;DHT22;8239;48.594;8.598;2023-02-24T07:47:41;6.90;99.90
16263;DHT22;8239;48.594;8.598;2023-02-24T07:50:10;7.00;99.90
16263;DHT22;8239;48.594;8.598;2023-02-24T07:52:39;7.10;99.90
16263;DHT22;8239;48.594;8.598;2023-02-24T07:55:09;7.40;99.90
16263;DHT22;8239;48.594;8.598;2023-02-24T07:57:36;7.90;99.90
16263;DHT22;8239;48.594;8.598;2023-02-24T08:00:04;8.50;99.90
16263;DHT22;8239;48.594;8.598;2023-02-24T08:02:43;8.90;99.90
16263;DHT22;8239;48.594;8.598;2023-02-24T08:05:10;9.00;99.90
16263;DHT22;8239;48.594;8.598;2023-02-24T08:07:37;9.00;99.90
16263;DHT22;8239;48.594;8.598;2023-02-24T08:10:06;9.10;99.90
16263;DHT22;8239;48.594;8.598;2023-02-24T08:12:40;9.30;99.90
16263;DHT22;8239;48.594;8.598;2023-02-24T08:15:12;9.40;99.90
16263;DHT22;8239;48.594;8.598;2023-02-24T08:17:48;9.50;99.90
16263;DHT22;8239;48.594;8.598;2023-02-24T08:20:18;9.70;99.90
16263;DHT22;8239;48.594;8.598;2023-02-24T08:22:51;10.00;99.90
16263;DHT22;8239;48.594;8.598;2023-02-24T08:25:20;10.60;99.90
16263;DHT22;8239;48.594;8.598;2023-02-24T08:27:51;11.20;99.90
16263;DHT22;8239;48.594;8.598;2023-02-24T08:30:25;11.70;99.90
16263;DHT22;8239;48.594;8.598;2023-02-24T08:32:55;12.50;99.90
16263;DHT22;8239;48.594;8.598;2023-02-24T08:35:26;13.30;99.90
16263;DHT22;8239;48.594;8.598;2023-02-24T08:38:00;13.80;99.90
16263;DHT22;8239;48.594;8.598;2023-02-24T08:40:31;14.20;99.90
16263;DHT22;8239;48.594;8.598;2023-02-24T08:43:19;14.50;99.90
16263;DHT22;8239;48.594;8.598;2023-02-24T08:45:57;14.40;99.90
16263;DHT22;8239;48.594;8.598;2023-02-24T08:48:29;14.20;99.90
16263;DHT22;8239;48.594;8.598;2023-02-24T08:51:10;14.10;99.90
16263;DHT22;8239;48.594;8.598;2023-02-24T08:53:38;14.10;99.90
16263;DHT22;8239;48.594;8.598;2023-02-24T08:56:07;14.10;99.90
16263;DHT22;8239;48.594;8.598;2023-02-24T08:58:40;14.00;99.50
16263;DHT22;8239;48.594;8.598;2023-02-24T09:01:16;14.60;99.90
16263;DHT22;8239;48.594;8.598;2023-02-24T09:03:49;16.00;99.90
16263;DHT22;8239;48.594;8.598;2023-02-24T09:06:19;17.80;96.20
16263;DHT22;8239;48.594;8.598;2023-02-24T09:08:51;19.50;86.80
16263;DHT22;8239;48.594;8.598;2023-02-24T09:11:41;21.30;75.40
16263;DHT22;8239;48.594;8.598;2023-02-24T09:14:13;22.40;66.40
16263;DHT22;8239;48.594;8.598;2023-02-24T09:16:43;22.50;61.70
16263;DHT22;8239;48.594;8.598;2023-02-24T09:19:31;21.90;58.10
16263;DHT22;8239;48.594;8.598;2023-02-24T09:22:28;21.30;59.30
16263;DHT22;8239;48.594;8.598;2023-02-24T09:24:57;20.80;59.00
16263;DHT22;8239;48.594;8.598;2023-02-24T09:27:38;20.40;60.20
16263;DHT22;8239;48.594;8.598;2023-02-24T09:30:10;19.80;58.40
16263;DHT22;8239;48.594;8.598;2023-02-24T09:32:57;19.10;59.50
16263;DHT22;8239;48.594;8.598;2023-02-24T09:35:26;18.70;61.90
16263;DHT22;8239;48.594;8.598;2023-02-24T09:37:56;18.90;63.90
16263;DHT22;8239;48.594;8.598;2023-02-24T09:40:25;19.30;63.00
16263;DHT22;8239;48.594;8.598;2023-02-24T09:43:09;19.80;61.40
16263;DHT22;8239;48.594;8.598;2023-02-24T09:45:57;20.00;59.00
16263;DHT22;8239;48.594;8.598;2023-02-24T09:48:34;19.90;57.70
16263;DHT22;8239;48.594;8.598;2023-02-24T09:51:13;19.20;56.70
16263;DHT22;8239;48.594;8.598;2023-02-24T09:53:46;19.20;59.70
16263;DHT22;8239;48.594;8.598;2023-02-24T09:56:22;19.30;58.90
16263;DHT22;8239;48.594;8.598;2023-02-24T09:59:13;18.80;57.70
16263;DHT22;8239;48.594;8.598;2023-02-24T10:01:56;17.80;57.90
16263;DHT22;8239;48.594;8.598;2023-02-24T10:04:55;16.40;58.90
16263;DHT22;8239;48.594;8.598;2023-02-24T10:07:34;15.00;62.50
16263;DHT22;8239;48.594;8.598;2023-02-24T10:10:09;14.10;65.40
16263;DHT22;8239;48.594;8.598;2023-02-24T10:12:56;13.50;68.10
16263;DHT22;8239;48.594;8.598;2023-02-24T10:15:29;12.90;70.00
16263;DHT22;8239;48.594;8.598;2023-02-24T10:18:26;12.50;72.10
16263;DHT22;8239;48.594;8.598;2023-02-24T10:20:58;12.10;74.20
16263;DHT22;8239;48.594;8.598;2023-02-24T10:23:29;11.70;75.60
16263;DHT22;8239;48.594;8.598;2023-02-24T10:26:03;11.50;77.40
16263;DHT22;8239;48.594;8.598;2023-02-24T10:28:36;11.40;78.60
16263;DHT22;8239;48.594;8.598;2023-02-24T10:31:10;11.30;80.40
16263;DHT22;8239;48.594;8.598;2023-02-24T10:33:55;11.20;81.90
16263;DHT22;8239;48.594;8.598;2023-02-24T10:36:24;11.20;83.70
16263;DHT22;8239;48.594;8.598;2023-02-24T10:39:01;11.10;85.50
16263;DHT22;8239;48.594;8.598;2023-02-24T10:41:42;10.90;86.20
16263;DHT22;8239;48.594;8.598;2023-02-24T10:44:18;10.80;87.90
16263;DHT22;8239;48.594;8.598;2023-02-24T10:46:45;10.70;90.10
16263;DHT22;8239;48.594;8.598;2023-02-24T10:49:19;10.60;90.60
16263;DHT22;8239;48.594;8.598;2023-02-24T10:51:51;10.50;91.00
16263;DHT22;8239;48.594;8.598;2023-02-24T10:54:22;10.40;91.20
16263;DHT22;8239;48.594;8.598;2023-02-24T10:57:12;10.30;91.80
16263;DHT22;8239;48.594;8.598;2023-02-24T10:59:52;10.20;92.60
16263;DHT22;8239;48.594;8.598;2023-02-24T11:02:38;10.00;92.80
16263;DHT22;8239;48.594;8.598;2023-02-24T11:05:23;9.90;94.20
16263;DHT22;8239;48.594;8.598;2023-02-24T11:08:13;9.80;95.10
16263;DHT22;8239;48.594;8.598;2023-02-24T11:11:01;9.80;96.00
16263;DHT22;8239;48.594;8.598;2023-02-24T11:13:33;9.80;96.70
16263;DHT22;8239;48.594;8.598;2023-02-24T11:16:19;9.80;97.30
16263;DHT22;8239;48.594;8.598;2023-02-24T11:19:05;9.90;97.80
16263;DHT22;8239;48.594;8.598;2023-02-24T11:21:33;10.00;97.80
16263;DHT22;8239;48.594;8.598;2023-02-24T11:24:00;10.20;97.50
16263;DHT22;8239;48.594;8.598;2023-02-24T11:26:34;10.50;96.80
16263;DHT22;8239;48.594;8.598;2023-02-24T11:29:15;11.00;97.30
16263;DHT22;8239;48.594;8.598;2023-02-24T11:31:55;12.10;98.00
16263;DHT22;8239;48.594;8.598;2023-02-24T11:34:32;13.70;96.00
16263;DHT22;8239;48.594;8.598;2023-02-24T11:37:08;15.30;93.40
16263;DHT22;8239;48.594;8.598;2023-02-24T11:39:49;16.70;88.20
16263;DHT22;8239;48.594;8.598;2023-02-24T11:42:21;18.00;79.70
16263;DHT22;8239;48.594;8.598;2023-02-24T11:44:53;19.60;77.20
16263;DHT22;8239;48.594;8.598;2023-02-24T11:47:32;21.00;65.70
16263;DHT22;8239;48.594;8.598;2023-02-24T11:50:13;21.20;58.60
16263;DHT22;8239;48.594;8.598;2023-02-24T11:52:46;21.50;57.30
16263;DHT22;8239;48.594;8.598;2023-02-24T11:55:23;21.90;56.50
16263;DHT22;8239;48.594;8.598;2023-02-24T11:57:53;22.00;55.10
16263;DHT22;8239;48.594;8.598;2023-02-24T12:00:24;21.90;54.90
16263;DHT22;8239;48.594;8.598;2023-02-24T12:02:56;22.00;53.30
16263;DHT22;8239;48.594;8.598;2023-02-24T12:05:26;21.30;51.60
16263;DHT22;8239;48.594;8.598;2023-02-24T12:08:02;20.10;50.90
16263;DHT22;8239;48.594;8.598;2023-02-24T12:10:34;18.40;52.70
16263;DHT22;8239;48.594;8.598;2023-02-24T12:13:06;17.00;56.70
16263;DHT22;8239;48.594;8.598;2023-02-24T12:15:37;16.10;60.00
16263;DHT22;8239;48.594;8.598;2023-02-24T12:18:13;15.40;60.20
16263;DHT22;8239;48.594;8.598;2023-02-24T12:20:47;14.70;62.40
16263;DHT22;8239;48.594;8.598;2023-02-24T12:23:30;14.00;64.00
16263;DHT22;8239;48.594;8.598;2023-02-24T12:26:07;13.40;66.90
16263;DHT22;8239;48.594;8.598;2023-02-24T12:28:50;12.90;68.20
16263;DHT22;8239;48.594;8.598;2023-02-24T12:31:31;12.50;70.10
16263;DHT22;8239;48.594;8.598;2023-02-24T12:34:10;12.10;71.10
16263;DHT22;8239;48.594;8.598;2023-02-24T12:37:02;11.70;73.30
16263;DHT22;8239;48.594;8.598;2023-02-24T12:39:41;11.50;75.10
16263;DHT22;8239;48.594;8.598;2023-02-24T12:42:21;11.50;77.40
16263;DHT22;8239;48.594;8.598;2023-02-24T12:44:58;11.50;78.20
16263;DHT22;8239;48.594;8.598;2023-02-24T12:47:35;11.50;79.50
16263;DHT22;8239;48.594;8.598;2023-02-24T12:50:18;11.70;80.30
16263;DHT22;8239;48.594;8.598;2023-02-24T12:52:54;12.20;82.70
16263;DHT22;8239;48.594;8.598;2023-02-24T12:55:27;13.00;81.00
16263;DHT22;8239;48.594;8.598;2023-02-24T12:58:04;13.80;78.80
16263;DHT22;8239;48.594;8.598;2023-02-24T13:00:42;14.10;75.10
16263;DHT22;8239;48.594;8.598;2023-02-24T13:03:31;14.30;73.70
16263;DHT22;8239;48.594;8.598;2023-02-24T13:06:05;14.30;70.80
16263;DHT22;8239;48.594;8.598;2023-02-24T13:08:46;13.90;70.30
16263;DHT22;8239;48.594;8.598;2023-02-24T13:11:25;13.50;70.90
16263;DHT22;8239;48.594;8.598;2023-02-24T13:13:59;12.90;72.50
16263;DHT22;8239;48.594;8.598;2023-02-24T13:16:31;12.60;75.00
16263;DHT22;8239;48.594;8.598;2023-02-24T13:19:15;12.20;76.00
16263;DHT22;8239;48.594;8.598;2023-02-24T13:21:53;12.10;78.00
16263;DHT22;8239;48.594;8.598;2023-02-24T13:24:22;12.20;78.70
16263;DHT22;8239;48.594;8.598;2023-02-24T13:26:51;12.20;78.70
16263;DHT22;8239;48.594;8.598;2023-02-24T13:29:29;12.00;78.90
16263;DHT22;8239;48.594;8.598;2023-02-24T13:31:56;11.90;80.00
16263;DHT22;8239;48.594;8.598;2023-02-24T13:34:30;11.80;81.50
16263;DHT22;8239;48.594;8.598;2023-02-24T13:36:57;11.80;82.50
16263;DHT22;8239;48.594;8.598;2023-02-24T13:39:31;11.70;83.00
16263;DHT22;8239;48.594;8.598;2023-02-24T13:42:18;11.60;82.60
16263;DHT22;8239;48.594;8.598;2023-02-24T13:44:48;11.30;83.10
16263;DHT22;8239;48.594;8.598;2023-02-24T13:50:32;11.00;87.00
16263;DHT22;8239;48.594;8.598;2023-02-24T13:56:02;10.80;89.90
16263;DHT22;8239;48.594;8.598;2023-02-24T13:58:54;10.70;90.60
16263;DHT22;8239;48.594;8.598;2023-02-24T14:01:26;10.60;90.80
16263;DHT22;8239;48.594;8.598;2023-02-24T14:04:04;10.40;91.40
16263;DHT22;8239;48.594;8.598;2023-02-24T14:06:32;10.20;92.10
16263;DHT22;8239;48.594;8.598;2023-02-24T14:09:01;10.10;93.00
16263;DHT22;8239;48.594;8.598;2023-02-24T14:11:32;9.90;93.80
16263;DHT22;8239;48.594;8.598;2023-02-24T14:14:01;9.90;94.60
16263;DHT22;8239;48.594;8.598;2023-02-24T14:16:31;9.80;95.40
16263;DHT22;8239;48.594;8.598;2023-02-24T14:19:01;9.70;96.20
16263;DHT22;8239;48.594;8.598;2023-02-24T14:21:31;9.70;96.50
16263;DHT22;8239;48.594;8.598;2023-02-24T14:24:00;9.60;97.00
16263;DHT22;8239;48.594;8.598;2023-02-24T14:26:29;9.50;96.90
16263;DHT22;8239;48.594;8.598;2023-02-24T14:29:02;9.40;97.30
16263;DHT22;8239;48.594;8.598;2023-02-24T14:31:29;9.30;97.70
16263;DHT22;8239;48.594;8.598;2023-02-24T14:33:58;9.20;98.10
16263;DHT22;8239;48.594;8.598;2023-02-24T14:36:29;9.20;98.50
16263;DHT22;8239;48.594;8.598;2023-02-24T14:39:00;9.20;99.20
16263;DHT22;8239;48.594;8.598;2023-02-24T14:41:27;9.10;99.10
16263;DHT22;8239;48.594;8.598;2023-02-24T14:43:54;9.10;99.50
16263;DHT22;8239;48.594;8.598;2023-02-24T14:46:23;9.00;99.90
16263;DHT22;8239;48.594;8.598;2023-02-24T14:48:54;9.00;99.90
16263;DHT22;8239;48.594;8.598;2023-02-24T14:51:24;9.00;99.90
16263;DHT22;8239;48.594;8.598;2023-02-24T14:53:55;9.00;99.90
16263;DHT22;8239;48.594;8.598;2023-02-24T14:56:30;9.00;99.90
16263;DHT22;8239;48.594;8.598;2023-02-24T14:59:01;9.00;99.90
16263;DHT22;8239;48.594;8.598;2023-02-24T15:01:34;9.00;99.90
16263;DHT22;8239;48.594;8.598;2023-02-24T15:04:11;9.00;99.90
16263;DHT22;8239;48.594;8.598;2023-02-24T15:06:41;8.90;99.90
16263;DHT22;8239;48.594;8.598;2023-02-24T15:09:12;8.90;99.90
16263;DHT22;8239;48.594;8.598;2023-02-24T15:11:40;8.80;99.90
16263;DHT22;8239;48.594;8.598;2023-02-24T15:14:18;8.80;99.90
16263;DHT22;8239;48.594;8.598;2023-02-24T15:16:49;8.80;99.90
16263;DHT22;8239;48.594;8.598;2023-02-24T15:19:24;8.80;99.90
16263;DHT22;8239;48.594;8.598;2023-02-24T15:21:52;8.80;99.90
16263;DHT22;8239;48.594;8.598;2023-02-24T15:24:24;8.80;99.90
16263;DHT22;8239;48.594;8.598;2023-02-24T15:26:52;8.70;99.90
16263;DHT22;8239;48.594;8.598;2023-02-24T15:29:20;8.70;99.90
16263;DHT22;8239;48.594;8.598;2023-02-24T15:31:53;8.70;99.90
16263;DHT22;8239;48.594;8.598;2023-02-24T15:34:22;8.60;99.90
16263;DHT22;8239;48.594;8.598;2023-02-24T15:36:51;8.50;99.90
16263;DHT22;8239;48.594;8.598;2023-02-24T15:39:22;8.50;99.90
16263;DHT22;8239;48.594;8.598;2023-02-24T15:41:51;8.50;99.90
16263;DHT22;8239;48.594;8.598;2023-02-24T15:44:27;8.50;99.90
16263;DHT22;8239;48.594;8.598;2023-02-24T15:46:57;8.50;99.90
16263;DHT22;8239;48.594;8.598;2023-02-24T15:49:24;8.40;99.90
16263;DHT22;8239;48.594;8.598;2023-02-24T15:51:52;8.40;99.90
16263;DHT22;8239;48.594;8.598;2023-02-24T15:54:27;8.40;99.90
16263;DHT22;8239;48.594;8.598;2023-02-24T15:56:56;8.40;99.90
16263;DHT22;8239;48.594;8.598;2023-02-24T15:59:23;8.30;99.90
16263;DHT22;8239;48.594;8.598;2023-02-24T16:01:50;8.30;99.90
16263;DHT22;8239;48.594;8.598;2023-02-24T16:04:19;8.20;99.90
16263;DHT22;8239;48.594;8.598;2023-02-24T16:06:49;8.20;99.90
16263;DHT22;8239;48.594;8.598;2023-02-24T16:09:25;8.20;99.90
16263;DHT22;8239;48.594;8.598;2023-02-24T16:11:56;8.10;99.90
16263;DHT22;8239;48.594;8.598;2023-02-24T16:14:24;8.10;99.90
16263;DHT22;8239;48.594;8.598;2023-02-24T16:16:52;8.00;99.90
16263;DHT22;8239;48.594;8.598;2023-02-24T16:19:24;8.00;99.90
16263;DHT22;8239;48.594;8.598;2023-02-24T16:21:52;7.90;99.90
16263;DHT22;8239;48.594;8.598;2023-02-24T16:24:19;7.80;99.90
16263;DHT22;8239;48.594;8.598;2023-02-24T16:26:46;7.80;99.90
16263;DHT22;8239;48.594;8.598;2023-02-24T16:29:14;7.70;99.90
16263;DHT22;8239;48.594;8.598;2023-02-24T16:31:41;7.60;99.90
16263;DHT22;8239;48.594;8.598;2023-02-24T16:34:13;7.50;99.90
16263;DHT22;8239;48.594;8.598;2023-02-24T16:36:42;7.50;99.90
16263;DHT22;8239;48.594;8.598;2023-02-24T16:39:10;7.40;99.90
16263;DHT22;8239;48.594;8.598;2023-02-24T16:41:38;7.40;99.90
16263;DHT22;8239;48.594;8.598;2023-02-24T16:44:05;7.40;99.90
16263;DHT22;8239;48.594;8.598;2023-02-24T16:46:35;7.30;99.90